createdAt,value
2023-04-11T00:00:49.104Z,0.43
2023-04-11T00:01:49.231Z,0.40
2023-04-11T00:02:49.428Z,0.40
2023-04-11T00:03:49.520Z,0.40
2023-04-11T00:04:49.408Z,0.44
2023-04-11T00:05:49.447Z,0.49
2023-04-11T00:06:49.514Z,0.50
2023-04-11T00:07:49.564Z,0.50
2023-04-11T00:08:49.617Z,0.51
2023-04-11T00:09:49.720Z,0.50
2023-04-11T00:10:49.789Z,0.50
2023-04-11T00:11:49.857Z,0.51
2023-04-11T00:12:49.947Z,0.50
2023-04-11T00:13:50.017Z,0.51
2023-04-11T00:14:50.088Z,0.51
2023-04-11T00:15:50.166Z,0.50
2023-04-11T00:16:50.399Z,0.50
2023-04-11T00:17:50.331Z,0.50
2023-04-11T00:18:50.383Z,0.50
2023-04-11T00:19:50.461Z,0.50
2023-04-11T00:20:50.517Z,0.50
2023-04-11T00:21:50.567Z,0.51
2023-04-11T00:22:50.615Z,0.50
2023-04-11T00:23:50.653Z,0.51
2023-04-11T00:24:50.694Z,0.51
2023-04-11T00:25:50.795Z,0.51
2023-04-11T00:26:50.818Z,0.51
2023-04-11T00:27:50.873Z,0.51
2023-04-11T00:28:50.886Z,0.50
2023-04-11T00:29:50.896Z,0.50
2023-04-11T00:30:50.920Z,0.50
2023-04-11T00:31:50.984Z,0.50
2023-04-11T00:32:51.081Z,0.51
2023-04-11T00:33:51.038Z,0.50
2023-04-11T00:34:51.063Z,0.51
2023-04-11T00:35:51.136Z,0.51
2023-04-11T00:36:51.254Z,0.51
2023-04-11T00:37:51.103Z,0.50
2023-04-11T00:38:51.123Z,0.50
2023-04-11T00:39:51.131Z,0.50
2023-04-11T00:40:51.147Z,0.51
2023-04-11T00:41:51.216Z,0.50
2023-04-11T00:42:51.202Z,0.51
2023-04-11T00:43:51.205Z,0.51
2023-04-11T00:44:51.219Z,0.51
2023-04-11T00:45:51.287Z,0.52
2023-04-11T00:46:51.250Z,0.51
2023-04-11T00:47:51.275Z,0.52
2023-04-11T00:48:51.289Z,0.51
2023-04-11T00:49:51.301Z,0.52
2023-04-11T00:50:51.323Z,0.52
2023-04-11T00:51:51.342Z,0.51
2023-04-11T00:52:51.364Z,0.51
2023-04-11T00:53:51.390Z,0.51
2023-04-11T00:54:51.436Z,0.51
2023-04-11T00:55:51.459Z,0.51
2023-04-11T00:56:51.458Z,0.51
2023-04-11T00:57:51.477Z,0.51
2023-04-11T00:58:51.483Z,0.52
2023-04-11T00:59:51.475Z,0.52
2023-04-11T01:00:51.548Z,0.51
2023-04-11T01:01:51.689Z,0.51
2023-04-11T01:02:51.642Z,0.51
2023-04-11T01:03:51.670Z,0.51
2023-04-11T01:04:51.596Z,0.51
2023-04-11T01:05:51.587Z,0.50
2023-04-11T01:06:51.600Z,0.50
2023-04-11T01:07:51.625Z,0.51
2023-04-11T01:08:51.606Z,0.51
2023-04-11T01:09:51.620Z,0.51
2023-04-11T01:10:51.646Z,0.53
2023-04-11T01:11:51.665Z,0.51
2023-04-11T01:12:51.678Z,0.51
2023-04-11T01:13:51.727Z,0.51
2023-04-11T01:14:51.728Z,0.51
2023-04-11T01:15:51.736Z,0.51
2023-04-11T01:16:51.801Z,0.51
2023-04-11T01:17:51.771Z,0.51
2023-04-11T01:18:51.800Z,0.51
2023-04-11T01:19:51.817Z,0.53
2023-04-11T01:20:51.845Z,0.51
2023-04-11T01:21:51.894Z,0.51
2023-04-11T01:22:51.935Z,0.52
2023-04-11T01:23:51.978Z,0.52
2023-04-11T01:24:52.020Z,0.51
2023-04-11T01:25:52.016Z,0.52
2023-04-11T01:26:52.179Z,0.51
2023-04-11T01:27:52.267Z,0.50
2023-04-11T01:28:52.100Z,0.52
2023-04-11T01:29:52.154Z,0.50
2023-04-11T01:30:52.196Z,0.52
2023-04-11T01:31:52.188Z,0.52
2023-04-11T01:32:52.231Z,0.52
2023-04-11T01:33:52.243Z,0.52
2023-04-11T01:34:52.226Z,0.51
2023-04-11T01:35:52.304Z,0.52
2023-04-11T01:36:52.286Z,0.52
2023-04-11T01:37:52.320Z,0.51
2023-04-11T01:38:52.324Z,0.51
2023-04-11T01:39:52.343Z,0.51
2023-04-11T01:40:52.353Z,0.52
2023-04-11T01:41:52.364Z,0.50
2023-04-11T01:42:52.377Z,0.51
2023-04-11T01:43:52.394Z,0.51
2023-04-11T01:44:52.409Z,0.52
2023-04-11T01:45:52.462Z,0.51
2023-04-11T01:46:52.451Z,0.53
2023-04-11T01:47:52.595Z,0.52
2023-04-11T01:48:52.565Z,0.51
2023-04-11T01:49:52.500Z,0.52
2023-04-11T01:50:52.536Z,0.52
2023-04-11T01:51:52.562Z,0.52
2023-04-11T01:52:52.589Z,0.52
2023-04-11T01:53:52.664Z,0.52
2023-04-11T01:54:52.642Z,0.53
2023-04-11T01:55:52.653Z,0.52
2023-04-11T01:56:52.690Z,0.52
2023-04-11T01:57:52.706Z,0.51
2023-04-11T01:58:52.744Z,0.51
2023-04-11T01:59:52.715Z,0.52
2023-04-11T02:00:52.734Z,0.52
2023-04-11T02:01:52.872Z,0.52
2023-04-11T02:02:52.933Z,0.51
2023-04-11T02:03:52.928Z,0.53
2023-04-11T02:04:52.799Z,0.52
2023-04-11T02:05:52.836Z,0.51
2023-04-11T02:06:52.882Z,0.51
2023-04-11T02:07:52.902Z,0.52
2023-04-11T02:08:53.100Z,0.52
2023-04-11T02:09:52.944Z,0.52
2023-04-11T02:10:52.968Z,0.51
2023-04-11T02:11:52.975Z,0.51
2023-04-11T02:12:53.031Z,0.52
2023-04-11T02:13:53.102Z,0.52
2023-04-11T02:14:53.058Z,0.52
2023-04-11T02:15:53.120Z,0.52
2023-04-11T02:16:53.138Z,0.52
2023-04-11T02:17:53.211Z,0.52
2023-04-11T02:18:53.245Z,0.52
2023-04-11T02:19:53.180Z,0.53
2023-04-11T02:20:53.204Z,0.51
2023-04-11T02:21:53.226Z,0.52
2023-04-11T02:22:53.231Z,0.52
2023-04-11T02:23:53.266Z,0.52
2023-04-11T02:24:53.287Z,0.52
2023-04-11T02:25:53.286Z,0.52
2023-04-11T02:26:53.309Z,0.52
2023-04-11T02:27:53.333Z,0.53
2023-04-11T02:28:53.462Z,0.51
2023-04-11T02:29:53.436Z,0.53
2023-04-11T02:30:53.517Z,0.52
2023-04-11T02:31:53.513Z,0.52
2023-04-11T02:32:53.604Z,0.53
2023-04-11T02:33:53.532Z,0.52
2023-04-11T02:34:53.551Z,0.52
2023-04-11T02:35:53.617Z,0.52
2023-04-11T02:36:53.622Z,0.52
2023-04-11T02:37:53.634Z,0.53
2023-04-11T02:38:53.955Z,0.53
2023-04-11T02:39:53.675Z,0.52
2023-04-11T02:40:53.694Z,0.52
2023-04-11T02:41:53.727Z,0.54
2023-04-11T02:42:53.733Z,0.52
2023-04-11T02:43:53.837Z,0.53
2023-04-11T02:44:53.770Z,0.52
2023-04-11T02:46:01.969Z,0.52
2023-04-11T02:46:53.844Z,0.52
2023-04-11T02:47:53.910Z,0.53
2023-04-11T02:48:54.103Z,0.53
2023-04-11T02:49:53.903Z,0.53
2023-04-11T02:50:53.951Z,0.54
2023-04-11T02:51:53.930Z,0.54
2023-04-11T02:52:53.966Z,0.53
2023-04-11T02:53:53.991Z,0.54
2023-04-11T02:54:53.989Z,0.53
2023-04-11T02:55:54.025Z,0.53
2023-04-11T02:56:54.022Z,0.53
2023-04-11T02:57:54.047Z,0.53
2023-04-11T02:58:54.401Z,0.54
2023-04-11T02:59:54.110Z,0.53
2023-04-11T03:00:54.107Z,0.53
2023-04-11T03:01:54.241Z,0.53
2023-04-11T03:02:54.224Z,0.53
2023-04-11T03:03:54.303Z,0.54
2023-04-11T03:04:54.199Z,0.53
2023-04-11T03:05:54.208Z,0.54
2023-04-11T03:06:54.201Z,0.53
2023-04-11T03:07:54.250Z,0.53
2023-04-11T03:08:54.482Z,0.53
2023-04-11T03:09:54.259Z,0.52
2023-04-11T03:10:54.269Z,0.54
2023-04-11T03:11:54.283Z,0.53
2023-04-11T03:12:54.307Z,0.53
2023-04-11T03:13:54.316Z,0.53
2023-04-11T03:14:54.349Z,0.53
2023-04-11T03:15:54.405Z,0.52
2023-04-11T03:16:54.374Z,0.53
2023-04-11T03:17:54.424Z,0.53
2023-04-11T03:18:54.663Z,0.52
2023-04-11T03:19:54.465Z,0.53
2023-04-11T03:20:54.432Z,0.53
2023-04-11T03:21:54.465Z,0.53
2023-04-11T03:22:54.484Z,0.53
2023-04-11T03:23:54.457Z,0.55
2023-04-11T03:24:54.464Z,0.53
2023-04-11T03:25:54.484Z,0.54
2023-04-11T03:26:54.466Z,0.53
2023-04-11T03:27:54.469Z,0.54
2023-04-11T03:28:54.664Z,0.53
2023-04-11T03:29:54.483Z,0.53
2023-04-11T03:30:54.557Z,0.53
2023-04-11T03:31:54.494Z,0.54
2023-04-11T03:32:54.550Z,0.53
2023-04-11T03:33:54.497Z,0.52
2023-04-11T03:34:54.489Z,0.53
2023-04-11T03:35:54.555Z,0.53
2023-04-11T03:36:54.566Z,0.53
2023-04-11T03:37:54.646Z,0.52
2023-04-11T03:38:54.962Z,0.53
2023-04-11T03:39:54.728Z,0.52
2023-04-11T03:40:54.771Z,0.53
2023-04-11T03:41:54.827Z,0.53
2023-04-11T03:42:54.868Z,0.53
2023-04-11T03:43:54.922Z,0.52
2023-04-11T03:44:54.981Z,0.53
2023-04-11T03:45:55.027Z,0.53
2023-04-11T03:46:55.100Z,0.52
2023-04-11T03:47:55.148Z,0.53
2023-04-11T03:48:55.515Z,0.54
2023-04-11T03:49:55.232Z,0.52
2023-04-11T03:50:55.286Z,0.52
2023-04-11T03:51:55.341Z,0.51
2023-04-11T03:52:55.402Z,0.52
2023-04-11T03:53:55.478Z,0.54
2023-04-11T03:54:55.520Z,0.53
2023-04-11T03:55:55.558Z,0.53
2023-04-11T03:56:55.620Z,0.54
2023-04-11T03:57:55.684Z,0.52
2023-04-11T03:58:56.027Z,0.52
2023-04-11T03:59:55.796Z,0.54
2023-04-11T04:00:55.840Z,0.54
2023-04-11T04:01:55.988Z,0.53
2023-04-11T04:02:56.073Z,0.54
2023-04-11T04:03:56.447Z,0.53
2023-04-11T04:04:56.113Z,0.52
2023-04-11T04:05:56.132Z,0.53
2023-04-11T04:06:56.195Z,0.54
2023-04-11T04:07:56.252Z,0.53
2023-04-11T04:08:56.307Z,0.53
2023-04-11T04:09:56.385Z,0.53
2023-04-11T04:10:56.415Z,0.51
2023-04-11T04:11:56.476Z,0.53
2023-04-11T04:12:56.524Z,0.53
2023-04-11T04:13:56.769Z,0.52
2023-04-11T04:14:56.651Z,0.53
2023-04-11T04:15:56.714Z,0.53
2023-04-11T04:16:56.841Z,0.54
2023-04-11T04:17:56.876Z,0.54
2023-04-11T04:18:56.889Z,0.51
2023-04-11T04:19:56.953Z,0.52
2023-04-11T04:20:56.998Z,0.52
2023-04-11T04:21:57.057Z,0.53
2023-04-11T04:22:57.111Z,0.51
2023-04-11T04:23:57.512Z,0.52
2023-04-11T04:24:57.221Z,0.53
2023-04-11T04:25:57.302Z,0.53
2023-04-11T04:26:57.323Z,0.52
2023-04-11T04:27:57.373Z,0.52
2023-04-11T04:28:57.431Z,0.52
2023-04-11T04:30:03.542Z,0.51
2023-04-11T04:30:57.488Z,0.51
2023-04-11T04:31:57.542Z,0.52
2023-04-11T04:32:57.556Z,0.52
2023-04-11T04:33:57.591Z,0.52
2023-04-11T04:34:57.555Z,0.52
2023-04-11T04:35:57.524Z,0.52
2023-04-11T04:36:57.536Z,0.53
2023-04-11T04:37:57.528Z,0.52
2023-04-11T04:38:57.544Z,0.52
2023-04-11T04:39:57.531Z,0.51
2023-04-11T04:40:57.557Z,0.53
2023-04-11T04:41:57.555Z,0.53
2023-04-11T04:42:57.531Z,0.51
2023-04-11T04:43:57.664Z,0.52
2023-04-11T04:44:57.523Z,0.53
2023-04-11T04:45:57.567Z,0.54
2023-04-11T04:46:57.555Z,0.53
2023-04-11T04:47:57.550Z,0.52
2023-04-11T04:48:57.533Z,0.54
2023-04-11T04:49:57.514Z,0.53
2023-04-11T04:50:57.544Z,0.53
2023-04-11T04:51:57.560Z,0.52
2023-04-11T04:52:57.542Z,0.53
2023-04-11T04:53:57.845Z,0.52
2023-04-11T04:54:57.548Z,0.53
2023-04-11T04:55:57.520Z,0.52
2023-04-11T04:56:57.502Z,0.53
2023-04-11T04:57:57.529Z,0.51
2023-04-11T04:58:57.523Z,0.52
2023-04-11T04:59:57.520Z,0.52
2023-04-11T05:00:57.547Z,0.52
2023-04-11T05:01:57.590Z,0.54
2023-04-11T05:02:57.913Z,0.53
2023-04-11T05:03:57.896Z,0.52
2023-04-11T05:04:57.711Z,0.52
2023-04-11T05:05:57.752Z,0.52
2023-04-11T05:06:57.805Z,0.52
2023-04-11T05:07:57.875Z,0.53
2023-04-11T05:08:57.907Z,0.53
2023-04-11T05:09:57.956Z,0.53
2023-04-11T05:10:58.048Z,0.52
2023-04-11T05:11:58.051Z,0.52
2023-04-11T05:12:58.088Z,0.51
2023-04-11T05:13:58.479Z,0.50
2023-04-11T05:14:58.159Z,0.50
2023-04-11T05:15:58.179Z,0.52
2023-04-11T05:16:58.282Z,0.50
2023-04-11T05:17:58.254Z,0.50
2023-04-11T05:18:58.277Z,0.50
2023-04-11T05:19:58.309Z,0.51
2023-04-11T05:20:58.348Z,0.50
2023-04-11T05:21:58.445Z,0.51
2023-04-11T05:22:58.386Z,0.53
2023-04-11T05:23:58.486Z,0.53
2023-04-11T05:24:58.447Z,0.52
2023-04-11T05:25:58.475Z,0.54
2023-04-11T05:26:58.515Z,0.53
2023-04-11T05:27:58.546Z,0.52
2023-04-11T05:28:58.600Z,0.54
2023-04-11T05:29:59.309Z,0.53
2023-04-11T05:30:59.554Z,0.54
2023-04-11T05:31:58.742Z,0.54
2023-04-11T05:32:59.380Z,0.53
2023-04-11T05:33:58.963Z,0.54
2023-04-11T05:34:59.542Z,0.54
2023-04-11T05:35:59.000Z,0.53
2023-04-11T05:36:58.817Z,0.54
2023-04-11T05:37:58.843Z,0.54
2023-04-11T05:38:58.889Z,0.52
2023-04-11T05:39:58.890Z,0.53
2023-04-11T05:40:58.946Z,0.56
2023-04-11T05:41:58.938Z,0.56
2023-04-11T05:42:58.955Z,0.55
2023-04-11T05:43:59.482Z,0.57
2023-04-11T05:44:59.009Z,0.59
2023-04-11T05:45:59.139Z,0.63
2023-04-11T05:46:59.047Z,0.64
2023-04-11T05:47:59.288Z,0.62
2023-04-11T05:49:00.127Z,0.69
2023-04-11T05:49:59.304Z,0.70
2023-04-11T05:50:59.217Z,0.68
2023-04-11T05:51:59.207Z,0.72
2023-04-11T05:52:59.487Z,0.80
2023-04-11T05:53:59.476Z,0.79
2023-04-11T05:55:00.448Z,0.77
2023-04-11T05:55:59.381Z,0.82
2023-04-11T05:56:59.395Z,0.82
2023-04-11T05:57:59.503Z,0.88
2023-04-11T05:58:59.536Z,0.90
2023-04-11T06:00:00.012Z,0.93
2023-04-11T06:01:00.144Z,1.01
2023-04-11T06:02:00.566Z,1.08
2023-04-11T06:02:59.643Z,1.09
2023-04-11T06:04:01.391Z,1.16
2023-04-11T06:05:15.743Z,1.15
2023-04-11T06:06:00.582Z,1.16
2023-04-11T06:08:02.906Z,1.16
2023-04-11T06:09:06.968Z,1.17
2023-04-11T06:10:00.198Z,1.17
2023-04-11T06:11:00.550Z,1.17
2023-04-11T06:11:59.550Z,1.22
2023-04-11T06:12:59.534Z,1.30
2023-04-11T06:14:00.168Z,1.46
2023-04-11T06:14:59.529Z,1.74
2023-04-11T06:15:59.543Z,1.82
2023-04-11T06:16:59.536Z,1.81
2023-04-11T06:17:59.625Z,1.82
2023-04-11T06:18:59.968Z,1.78
2023-04-11T06:19:59.582Z,1.79
2023-04-11T06:21:00.152Z,1.79
2023-04-11T06:21:59.962Z,1.83
2023-04-11T06:22:59.724Z,1.80
2023-04-11T06:23:59.761Z,1.86
2023-04-11T06:24:59.797Z,1.85
2023-04-11T06:25:59.818Z,1.79
2023-04-11T06:26:59.842Z,1.77
2023-04-11T06:27:59.869Z,1.72
2023-04-11T06:28:59.890Z,1.74
2023-04-11T06:29:59.961Z,1.76
2023-04-11T06:31:00.026Z,1.77
2023-04-11T06:32:00.060Z,1.71
2023-04-11T06:33:00.642Z,1.73
2023-04-11T06:34:00.204Z,1.73
2023-04-11T06:35:00.165Z,1.68
2023-04-11T06:36:00.256Z,1.70
2023-04-11T06:37:00.280Z,1.72
2023-04-11T06:38:00.382Z,1.81
2023-04-11T06:39:00.403Z,1.79
2023-04-11T06:40:00.457Z,1.87
2023-04-11T06:41:00.521Z,1.95
2023-04-11T06:42:00.592Z,2.03
2023-04-11T06:43:01.002Z,2.17
2023-04-11T06:44:00.698Z,2.18
2023-04-11T06:45:00.739Z,2.17
2023-04-11T06:46:00.782Z,2.26
2023-04-11T06:47:00.983Z,2.32
2023-04-11T06:48:01.009Z,2.38
2023-04-11T06:49:00.927Z,2.37
2023-04-11T06:50:01.030Z,2.44
2023-04-11T06:51:01.021Z,2.49
2023-04-11T06:52:01.057Z,2.51
2023-04-11T06:53:01.478Z,2.50
2023-04-11T06:54:01.483Z,2.51
2023-04-11T06:55:01.203Z,2.51
2023-04-11T06:56:01.262Z,2.53
2023-04-11T06:57:01.381Z,2.52
2023-04-11T06:58:01.472Z,2.53
2023-04-11T06:59:01.493Z,2.57
2023-04-11T07:00:05.188Z,2.59
2023-04-11T07:01:01.545Z,2.59
2023-04-11T07:02:01.521Z,2.60
2023-04-11T07:03:01.651Z,2.63
2023-04-11T07:04:01.698Z,2.74
2023-04-11T07:05:01.436Z,2.90
2023-04-11T07:06:01.445Z,2.77
2023-04-11T07:07:01.375Z,2.68
2023-04-11T07:08:01.479Z,2.71
2023-04-11T07:09:01.347Z,2.73
2023-04-11T07:10:01.348Z,2.73
2023-04-11T07:11:01.343Z,2.62
2023-04-11T07:12:01.303Z,2.67
2023-04-11T07:13:01.290Z,2.57
2023-04-11T07:14:01.279Z,2.60
2023-04-11T07:15:01.325Z,2.50
2023-04-11T07:16:01.441Z,2.50
2023-04-11T07:17:01.461Z,2.46
2023-04-11T07:18:01.515Z,2.56
2023-04-11T07:19:01.549Z,2.43
2023-04-11T07:20:02.140Z,2.32
2023-04-11T07:21:01.675Z,2.29
2023-04-11T07:22:01.822Z,2.30
2023-04-11T07:23:01.793Z,2.29
2023-04-11T07:24:02.033Z,2.25
2023-04-11T07:25:01.915Z,2.22
2023-04-11T07:26:01.992Z,2.25
2023-04-11T07:27:02.114Z,2.21
2023-04-11T07:28:02.085Z,2.20
2023-04-11T07:29:02.162Z,2.27
2023-04-11T07:30:02.220Z,2.26
2023-04-11T07:31:02.488Z,2.32
2023-04-11T07:32:02.519Z,2.29
2023-04-11T07:33:02.391Z,2.33
2023-04-11T07:34:02.452Z,2.28
2023-04-11T07:35:02.464Z,2.26
2023-04-11T07:36:03.020Z,2.28
2023-04-11T07:37:02.613Z,2.20
2023-04-11T07:38:02.692Z,2.20
2023-04-11T07:39:02.720Z,2.27
2023-04-11T07:40:02.785Z,2.35
2023-04-11T07:41:06.211Z,2.31
2023-04-11T07:42:02.858Z,2.27
2023-04-11T07:43:02.846Z,2.09
2023-04-11T07:44:02.989Z,2.04
2023-04-11T07:45:02.851Z,1.94
2023-04-11T07:46:03.548Z,1.93
2023-04-11T07:47:02.844Z,1.94
2023-04-11T07:48:02.818Z,1.90
2023-04-11T07:49:03.011Z,1.79
2023-04-11T07:50:03.190Z,1.80
2023-04-11T07:51:02.776Z,1.78
2023-04-11T07:52:02.781Z,1.73
2023-04-11T07:53:02.992Z,1.73
2023-04-11T07:54:02.824Z,1.73
2023-04-11T07:55:02.740Z,1.75
2023-04-11T07:56:03.226Z,1.78
2023-04-11T07:57:02.748Z,1.79
2023-04-11T07:58:02.837Z,1.86
2023-04-11T07:59:02.875Z,1.80
2023-04-11T08:00:02.934Z,1.79
2023-04-11T08:01:03.494Z,1.75
2023-04-11T08:02:03.759Z,1.75
2023-04-11T08:03:03.937Z,1.73
2023-04-11T08:04:04.105Z,1.69
2023-04-11T08:05:03.688Z,1.65
2023-04-11T08:06:03.760Z,1.65
2023-04-11T08:07:03.791Z,1.61
2023-04-11T08:08:03.359Z,1.65
2023-04-11T08:09:03.520Z,1.73
2023-04-11T08:10:03.497Z,1.82
2023-04-11T08:11:03.571Z,1.80
2023-04-11T08:12:04.015Z,1.77
2023-04-11T08:13:03.685Z,1.71
2023-04-11T08:14:04.715Z,1.75
2023-04-11T08:15:03.714Z,1.69
2023-04-11T08:16:04.011Z,1.69
2023-04-11T08:17:05.460Z,1.67
2023-04-11T08:18:03.813Z,1.67
2023-04-11T08:19:04.019Z,1.67
2023-04-11T08:20:03.791Z,1.63
2023-04-11T08:21:03.744Z,1.61
2023-04-11T08:22:03.766Z,1.56
2023-04-11T08:23:05.876Z,1.59
2023-04-11T08:24:04.023Z,1.59
2023-04-11T08:25:03.689Z,1.59
2023-04-11T08:26:04.078Z,1.55
2023-04-11T08:27:03.699Z,1.53
2023-04-11T08:28:03.655Z,1.49
2023-04-11T08:29:03.672Z,1.47
2023-04-11T08:30:04.629Z,1.48
2023-04-11T08:31:04.152Z,1.50
2023-04-11T08:32:04.011Z,1.45
2023-04-11T08:33:03.627Z,1.43
2023-04-11T08:35:02.552Z,1.43
2023-04-11T08:36:03.636Z,1.46
2023-04-11T08:37:03.531Z,1.43
2023-04-11T08:38:03.562Z,1.41
2023-04-11T08:39:04.017Z,1.39
2023-04-11T08:40:03.511Z,1.37
2023-04-11T08:41:03.553Z,1.40
2023-04-11T08:42:03.747Z,1.39
2023-04-11T08:43:03.582Z,1.41
2023-04-11T08:44:04.369Z,1.37
2023-04-11T08:45:04.078Z,1.41
2023-04-11T08:46:03.669Z,1.47
2023-04-11T08:47:03.562Z,1.51
2023-04-11T08:48:05.872Z,1.50
2023-04-11T08:49:03.796Z,1.52
2023-04-11T08:50:03.646Z,1.47
2023-04-11T08:51:03.475Z,1.41
2023-04-11T08:52:03.636Z,1.41
2023-04-11T08:53:03.430Z,1.34
2023-04-11T08:54:03.533Z,1.34
2023-04-11T08:55:03.386Z,1.31
2023-04-11T08:56:03.362Z,1.33
2023-04-11T08:57:03.342Z,1.33
2023-04-11T08:58:03.363Z,1.34
2023-04-11T08:59:03.520Z,1.29
2023-04-11T09:00:03.290Z,1.26
2023-04-11T09:01:03.513Z,1.26
2023-04-11T09:02:03.407Z,1.23
2023-04-11T09:03:03.793Z,1.25
2023-04-11T09:04:04.837Z,1.27
2023-04-11T09:05:03.506Z,1.24
2023-04-11T09:06:03.571Z,1.21
2023-04-11T09:07:03.706Z,1.21
2023-04-11T09:08:03.440Z,1.21
2023-04-11T09:09:03.590Z,1.21
2023-04-11T09:10:03.612Z,1.29
2023-04-11T09:11:03.538Z,1.35
2023-04-11T09:12:03.517Z,1.35
2023-04-11T09:13:03.526Z,1.30
2023-04-11T09:14:04.053Z,1.34
2023-04-11T09:15:04.261Z,1.35
2023-04-11T09:16:03.598Z,1.29
2023-04-11T09:17:03.558Z,1.29
2023-04-11T09:18:03.593Z,1.32
2023-04-11T09:19:03.579Z,1.35
2023-04-11T09:20:04.028Z,1.33
2023-04-11T09:21:03.627Z,1.38
2023-04-11T09:22:03.617Z,1.46
2023-04-11T09:23:03.644Z,1.45
2023-04-11T09:24:04.025Z,1.43
2023-04-11T09:25:03.704Z,1.44
2023-04-11T09:26:03.681Z,1.42
2023-04-11T09:27:03.698Z,1.44
2023-04-11T09:28:03.686Z,1.41
2023-04-11T09:29:04.032Z,1.41
2023-04-11T09:30:04.067Z,1.42
2023-04-11T09:31:03.710Z,1.43
2023-04-11T09:32:04.038Z,1.40
2023-04-11T09:33:03.738Z,1.31
2023-04-11T09:34:04.033Z,1.17
2023-04-11T09:35:03.727Z,1.14
2023-04-11T09:36:03.778Z,1.09
2023-04-11T09:37:03.764Z,1.07
2023-04-11T09:38:03.789Z,1.08
2023-04-11T09:39:04.047Z,1.07
2023-04-11T09:40:05.186Z,1.01
2023-04-11T09:41:04.128Z,1.02
2023-04-11T09:42:05.159Z,1.02
2023-04-11T09:43:03.782Z,1.01
2023-04-11T09:44:03.755Z,0.96
2023-04-11T09:45:03.707Z,0.96
2023-04-11T09:46:04.151Z,0.96
2023-04-11T09:47:03.687Z,0.95
2023-04-11T09:48:03.694Z,0.93
2023-04-11T09:49:03.865Z,0.91
2023-04-11T09:50:03.629Z,0.91
2023-04-11T09:51:04.036Z,0.89
2023-04-11T09:52:04.035Z,0.88
2023-04-11T09:53:03.670Z,0.86
2023-04-11T09:54:04.540Z,0.85
2023-04-11T09:55:04.077Z,0.83
2023-04-11T09:56:03.637Z,0.81
2023-04-11T09:57:04.036Z,0.82
2023-04-11T09:58:04.110Z,0.79
2023-04-11T09:59:03.654Z,0.79
2023-04-11T10:00:03.665Z,0.79
2023-04-11T10:01:03.680Z,0.78
2023-04-11T10:02:04.206Z,0.77
2023-04-11T10:03:03.874Z,0.77
2023-04-11T10:04:04.038Z,0.76
2023-04-11T10:05:04.388Z,0.76
2023-04-11T10:06:03.795Z,0.77
2023-04-11T10:07:04.183Z,0.75
2023-04-11T10:08:04.389Z,0.73
2023-04-11T10:09:04.397Z,0.72
2023-04-11T10:10:04.256Z,0.71
2023-04-11T10:11:04.309Z,0.69
2023-04-11T10:12:03.925Z,0.68
2023-04-11T10:13:03.931Z,0.68
2023-04-11T10:14:03.940Z,0.68
2023-04-11T10:15:03.976Z,0.69
2023-04-11T10:16:04.618Z,0.69
2023-04-11T10:17:04.022Z,0.69
2023-04-11T10:18:04.086Z,0.68
2023-04-11T10:19:04.054Z,0.69
2023-04-11T10:20:04.089Z,0.69
2023-04-11T10:21:04.116Z,0.69
2023-04-11T10:22:04.546Z,0.69
2023-04-11T10:23:04.545Z,0.68
2023-04-11T10:24:04.190Z,0.68
2023-04-11T10:25:04.213Z,0.69
2023-04-11T10:26:04.998Z,0.69
2023-04-11T10:27:04.554Z,0.70
2023-04-11T10:28:04.296Z,0.69
2023-04-11T10:29:04.564Z,0.68
2023-04-11T10:30:04.349Z,0.67
2023-04-11T10:31:04.588Z,0.69
2023-04-11T10:32:04.546Z,0.66
2023-04-11T10:33:04.611Z,0.66
2023-04-11T10:34:04.485Z,0.66
2023-04-11T10:35:04.470Z,0.65
2023-04-11T10:36:04.522Z,0.65
2023-04-11T10:37:04.509Z,0.63
2023-04-11T10:38:04.530Z,0.61
2023-04-11T10:39:04.547Z,0.61
2023-04-11T10:40:04.613Z,0.62
2023-04-11T10:41:04.583Z,0.62
2023-04-11T10:42:04.617Z,0.63
2023-04-11T10:43:04.620Z,0.61
2023-04-11T10:44:05.052Z,0.61
2023-04-11T10:45:04.652Z,0.60
2023-04-11T10:46:04.683Z,0.60
2023-04-11T10:47:04.747Z,0.59
2023-04-11T10:48:04.753Z,0.59
2023-04-11T10:49:05.077Z,0.60
2023-04-11T10:50:04.832Z,0.61
2023-04-11T10:51:04.784Z,0.60
2023-04-11T10:52:04.818Z,0.58
2023-04-11T10:53:04.846Z,0.57
2023-04-11T10:54:05.279Z,0.52
2023-04-11T10:55:04.906Z,0.51
2023-04-11T10:56:05.345Z,0.51
2023-04-11T10:57:04.954Z,0.51
2023-04-11T10:58:05.056Z,0.50
2023-04-11T10:59:05.058Z,0.50
2023-04-11T11:01:04.126Z,0.52
2023-04-11T11:02:05.181Z,0.51
2023-04-11T11:03:05.289Z,0.50
2023-04-11T11:04:06.307Z,0.51
2023-04-11T11:05:05.630Z,0.51
2023-04-11T11:06:05.579Z,0.50
2023-04-11T11:07:05.512Z,0.50
2023-04-11T11:08:05.680Z,0.51
2023-04-11T11:09:06.192Z,0.58
2023-04-11T11:10:05.737Z,0.63
2023-04-11T11:11:05.789Z,0.94
2023-04-11T11:12:05.746Z,1.09
2023-04-11T11:13:06.191Z,0.98
2023-04-11T11:14:05.793Z,0.90
2023-04-11T11:15:05.862Z,0.75
2023-04-11T11:16:05.889Z,0.73
2023-04-11T11:17:05.946Z,0.64
2023-04-11T11:18:06.112Z,0.57
2023-04-11T11:19:05.986Z,0.55
2023-04-11T11:20:06.014Z,0.55
2023-04-11T11:21:11.307Z,0.59
2023-04-11T11:22:09.244Z,0.59
2023-04-11T11:23:06.058Z,0.59
2023-04-11T11:24:05.991Z,0.60
2023-04-11T11:25:05.991Z,0.61
2023-04-11T11:26:05.957Z,0.62
2023-04-11T11:27:05.954Z,0.65
2023-04-11T11:28:05.929Z,0.62
2023-04-11T11:29:06.078Z,0.62
2023-04-11T11:30:05.897Z,0.58
2023-04-11T11:31:05.897Z,0.55
2023-04-11T11:32:05.964Z,0.57
2023-04-11T11:33:05.927Z,0.54
2023-04-11T11:34:21.904Z,0.55
2023-04-11T11:35:06.076Z,0.55
2023-04-11T11:36:05.843Z,0.54
2023-04-11T11:37:05.787Z,0.49
2023-04-11T11:38:06.088Z,0.46
2023-04-11T11:39:05.766Z,0.44
2023-04-11T11:40:05.740Z,0.48
2023-04-11T11:41:05.728Z,0.50
2023-04-11T11:42:05.727Z,0.60
2023-04-11T11:43:06.068Z,0.62
2023-04-11T11:44:05.697Z,0.68
2023-04-11T11:45:05.689Z,0.70
2023-04-11T11:46:07.102Z,0.71
2023-04-11T11:47:05.717Z,0.78
2023-04-11T11:48:06.178Z,0.81
2023-04-11T11:49:05.616Z,0.80
2023-04-11T11:50:05.593Z,0.80
2023-04-11T11:51:05.601Z,0.89
2023-04-11T11:52:05.557Z,0.95
2023-04-11T11:53:05.541Z,0.99
2023-04-11T11:54:05.596Z,0.95
2023-04-11T11:55:06.131Z,0.87
2023-04-11T11:56:05.495Z,0.85
2023-04-11T11:57:05.496Z,0.91
2023-04-11T11:58:06.572Z,0.85
2023-04-11T11:59:05.443Z,0.92
2023-04-11T12:00:05.419Z,0.95
2023-04-11T12:01:05.395Z,0.95
2023-04-11T12:02:05.486Z,0.87
2023-04-11T12:03:05.622Z,0.80
2023-04-11T12:04:05.469Z,0.80
2023-04-11T12:05:05.613Z,0.85
2023-04-11T12:06:05.288Z,0.78
2023-04-11T12:07:05.322Z,0.74
2023-04-11T12:08:05.579Z,0.81
2023-04-11T12:09:05.388Z,0.87
2023-04-11T12:10:05.989Z,0.79
2023-04-11T12:11:05.688Z,0.81
2023-04-11T12:12:05.464Z,0.78
2023-04-11T12:13:05.582Z,0.69
2023-04-11T12:14:05.931Z,0.71
2023-04-11T12:15:05.597Z,0.63
2023-04-11T12:16:06.128Z,0.63
2023-04-11T12:17:05.919Z,0.64
2023-04-11T12:18:05.842Z,0.64
2023-04-11T12:19:06.180Z,0.59
2023-04-11T12:20:05.821Z,0.55
2023-04-11T12:21:05.862Z,0.53
2023-04-11T12:22:05.917Z,0.53
2023-04-11T12:23:06.080Z,0.57
2023-04-11T12:24:06.031Z,0.55
2023-04-11T12:25:06.098Z,0.55
2023-04-11T12:26:06.262Z,0.60
2023-04-11T12:27:07.682Z,0.52
2023-04-11T12:28:06.164Z,0.59
2023-04-11T12:29:06.588Z,0.60
2023-04-11T12:30:06.150Z,0.71
2023-04-11T12:31:06.165Z,0.71
2023-04-11T12:32:06.117Z,0.72
2023-04-11T12:33:06.638Z,0.69
2023-04-11T12:34:06.082Z,0.64
2023-04-11T12:35:06.598Z,0.68
2023-04-11T12:36:06.062Z,0.64
2023-04-11T12:37:06.055Z,0.57
2023-04-11T12:38:06.059Z,0.60
2023-04-11T12:39:06.696Z,0.57
2023-04-11T12:40:06.200Z,0.56
2023-04-11T12:41:20.306Z,0.56
2023-04-11T12:42:06.002Z,0.56
2023-04-11T12:43:06.094Z,0.56
2023-04-11T12:44:05.940Z,0.55
2023-04-11T12:45:05.940Z,0.53
2023-04-11T12:46:05.941Z,0.53
2023-04-11T12:47:06.130Z,0.53
2023-04-11T12:48:05.946Z,0.51
2023-04-11T12:49:06.092Z,0.50
2023-04-11T12:50:06.359Z,0.51
2023-04-11T12:51:05.882Z,0.51
2023-04-11T12:52:05.864Z,0.54
2023-04-11T12:53:05.852Z,0.57
2023-04-11T12:54:06.111Z,0.56
2023-04-11T12:55:05.851Z,0.52
2023-04-11T12:56:05.812Z,0.51
2023-04-11T12:57:05.808Z,0.51
2023-04-11T12:58:05.818Z,0.50
2023-04-11T12:59:07.104Z,0.51
2023-04-11T13:00:05.780Z,0.54
2023-04-11T13:01:05.772Z,0.51
2023-04-11T13:02:05.804Z,0.51
2023-04-11T13:03:05.953Z,0.51
2023-04-11T13:04:06.277Z,0.54
2023-04-11T13:05:05.873Z,0.50
2023-04-11T13:06:05.915Z,0.54
2023-04-11T13:07:05.962Z,0.52
2023-04-11T13:08:06.040Z,0.53
2023-04-11T13:09:07.868Z,0.50
2023-04-11T13:10:06.108Z,0.53
2023-04-11T13:11:06.059Z,0.51
2023-04-11T13:12:06.061Z,0.50
2023-04-11T13:13:17.530Z,0.51
2023-04-11T13:14:06.149Z,0.52
2023-04-11T13:15:06.021Z,0.52
2023-04-11T13:16:06.031Z,0.51
2023-04-11T13:17:05.993Z,0.51
2023-04-11T13:18:05.995Z,0.50
2023-04-11T13:19:06.115Z,0.50
2023-04-11T13:20:05.954Z,0.50
2023-04-11T13:21:05.961Z,0.50
2023-04-11T13:22:05.942Z,0.51